createdAt,value
2022-10-31T00:02:52.099Z,11.52
2022-10-31T00:07:54.855Z,11.75
2022-10-31T00:12:57.465Z,13.25
2022-10-31T00:18:01.985Z,12.82
2022-10-31T00:23:04.961Z,13.45
2022-10-31T00:28:08.175Z,15.93
2022-10-31T00:33:11.912Z,15.88
2022-10-31T00:38:14.278Z,16.40
2022-10-31T00:43:16.598Z,16.45
2022-10-31T00:48:20.322Z,16.38
2022-10-31T00:53:22.891Z,17.27
2022-10-31T00:58:25.305Z,19.20
2022-10-31T01:03:29.655Z,18.38
2022-10-31T01:08:32.302Z,19.27
2022-10-31T01:13:34.762Z,17.47
2022-10-31T01:18:38.465Z,17.42
2022-10-31T01:23:41.106Z,17.15
2022-10-31T01:28:45.820Z,15.63
2022-10-31T01:33:49.621Z,15.27
2022-10-31T01:38:52.752Z,16.65
2022-10-31T01:43:55.809Z,14.65
2022-10-31T01:49:00.576Z,19.60
2022-10-31T01:54:03.899Z,24.17
2022-10-31T01:59:07.714Z,24.85
2022-10-31T02:04:11.409Z,25.20
2022-10-31T02:09:14.408Z,24.98
2022-10-31T02:14:16.772Z,25.67
2022-10-31T02:19:24.363Z,28.13
2022-10-31T02:24:46.432Z,27.15
2022-10-31T02:29:55.362Z,21.67
2022-10-31T02:35:05.636Z,24.95
2022-10-31T02:40:12.472Z,23.25
2022-10-31T02:45:17.656Z,23.80
2022-10-31T02:50:23.690Z,25.77
2022-10-31T02:55:44.485Z,29.27
2022-10-31T03:00:52.268Z,26.90
2022-10-31T03:06:02.037Z,29.20
2022-10-31T03:11:05.613Z,32.20
2022-10-31T03:16:10.765Z,36.38
2022-10-31T03:21:16.217Z,37.90
2022-10-31T03:26:19.191Z,38.30
2022-10-31T03:31:23.165Z,34.70
2022-10-31T03:36:28.171Z,34.58
2022-10-31T03:41:34.052Z,27.63
2022-10-31T03:46:36.608Z,32.75
2022-10-31T03:51:41.822Z,31.27
2022-10-31T03:56:46.989Z,25.05
2022-10-31T04:01:51.532Z,28.58
2022-10-31T04:06:56.493Z,32.72
2022-10-31T04:12:01.585Z,34.53
2022-10-31T04:17:05.760Z,29.42
2022-10-31T04:22:09.552Z,31.48
2022-10-31T04:27:12.111Z,26.85
2022-10-31T04:32:14.440Z,31.60
2022-10-31T04:37:18.120Z,27.67
2022-10-31T04:42:20.527Z,27.63
2022-10-31T04:47:22.866Z,23.75
2022-10-31T04:52:26.566Z,19.58
2022-10-31T04:57:28.940Z,18.48
2022-10-31T05:02:31.356Z,18.45
2022-10-31T05:07:35.120Z,21.58
2022-10-31T05:12:37.537Z,28.13
2022-10-31T05:17:39.881Z,25.33
2022-10-31T05:22:45.534Z,25.60
2022-10-31T05:27:48.859Z,26.73
2022-10-31T05:32:51.891Z,23.10
2022-10-31T05:37:55.801Z,25.35
2022-10-31T05:42:59.581Z,24.95
2022-10-31T05:48:03.779Z,25.15
2022-10-31T05:53:07.764Z,25.77
2022-10-31T05:58:10.135Z,29.75
2022-10-31T06:03:12.487Z,27.75
2022-10-31T06:08:16.229Z,28.15
2022-10-31T06:13:18.580Z,29.02
2022-10-31T06:18:20.947Z,32.28
2022-10-31T06:23:24.752Z,44.17
2022-10-31T06:28:27.088Z,46.72
2022-10-31T06:33:29.463Z,48.67
2022-10-31T06:38:33.185Z,53.95
2022-10-31T06:43:35.537Z,58.90
2022-10-31T06:48:37.900Z,70.20
2022-10-31T06:53:41.573Z,69.15
2022-10-31T06:58:43.970Z,71.88
2022-10-31T07:03:46.434Z,67.32
2022-10-31T07:08:50.173Z,64.45
2022-10-31T07:13:52.504Z,63.47
2022-10-31T07:18:54.859Z,65.68
2022-10-31T07:23:58.602Z,63.78
2022-10-31T07:29:01.021Z,67.32
2022-10-31T07:34:03.388Z,69.88
2022-10-31T07:39:07.082Z,62.35
2022-10-31T07:44:09.540Z,50.88
2022-10-31T07:49:11.916Z,33.13
2022-10-31T07:54:15.579Z,21.43
2022-10-31T07:59:17.934Z,16.85
2022-10-31T08:04:20.327Z,13.30
2022-10-31T08:09:24.105Z,11.73
2022-10-31T08:14:26.543Z,14.18
2022-10-31T08:19:28.878Z,12.88
2022-10-31T08:24:32.675Z,11.90
2022-10-31T08:29:35.119Z,11.75
2022-10-31T08:34:37.475Z,11.43
2022-10-31T08:39:41.167Z,10.82
2022-10-31T08:44:43.535Z,10.77
2022-10-31T08:49:46.911Z,10.77
2022-10-31T08:54:50.651Z,10.90
2022-10-31T08:59:53.009Z,10.32
2022-10-31T09:04:55.365Z,10.00
2022-10-31T09:09:59.072Z,10.43
2022-10-31T09:15:01.813Z,10.50
2022-10-31T09:20:05.340Z,10.27
2022-10-31T09:25:09.771Z,9.27
2022-10-31T09:30:12.579Z,10.05
2022-10-31T09:35:15.875Z,8.25
2022-10-31T09:40:21.067Z,8.93
2022-10-31T09:45:27.463Z,8.45
2022-10-31T09:50:32.737Z,8.30
2022-10-31T09:55:38.951Z,8.63
2022-10-31T10:00:41.473Z,7.82
2022-10-31T10:05:47.416Z,7.20
2022-10-31T10:10:53.380Z,7.35
2022-10-31T10:16:05.157Z,6.60
2022-10-31T10:21:13.775Z,6.60
2022-10-31T10:26:19.854Z,7.57
2022-10-31T10:31:24.747Z,6.28
2022-10-31T10:36:30.124Z,6.93
2022-10-31T10:41:34.945Z,7.43
2022-10-31T10:47:06.991Z,7.60
2022-10-31T10:57:58.216Z,8.85
2022-10-31T11:08:06.542Z,9.63
2022-10-31T11:13:20.311Z,11.27
2022-10-31T11:23:34.697Z,11.27
2022-10-31T11:28:37.059Z,11.23
2022-10-31T11:33:42.062Z,11.80
2022-10-31T11:38:45.960Z,12.27
2022-10-31T11:43:50.825Z,12.68
2022-10-31T11:48:54.454Z,11.85
2022-10-31T11:54:02.730Z,10.50
2022-10-31T11:59:07.512Z,10.80
2022-10-31T12:04:11.220Z,11.07
2022-10-31T12:09:20.301Z,8.73
2022-10-31T12:14:32.915Z,8.85
2022-10-31T12:19:38.474Z,9.50
2022-10-31T12:24:48.459Z,10.48
2022-10-31T12:30:01.578Z,10.18
2022-10-31T12:35:15.797Z,12.60
2022-10-31T12:40:25.421Z,11.88
2022-10-31T12:45:34.826Z,11.00
2022-10-31T12:50:43.479Z,16.83
2022-10-31T12:55:57.708Z,10.07
2022-10-31T13:01:06.511Z,10.27
2022-10-31T13:06:11.383Z,9.98
2022-10-31T13:11:16.551Z,10.45
2022-10-31T13:16:20.538Z,12.88
2022-10-31T13:21:23.870Z,12.75
2022-10-31T13:26:34.640Z,12.15
2022-10-31T13:31:36.998Z,11.73
2022-10-31T13:36:41.348Z,11.07
2022-10-31T13:41:48.819Z,12.07
2022-10-31T13:46:52.460Z,11.95
2022-10-31T13:51:54.966Z,11.65
2022-10-31T13:56:58.771Z,12.55
2022-10-31T14:02:02.531Z,13.02
2022-10-31T14:07:08.030Z,14.23
2022-10-31T14:12:16.392Z,15.23
2022-10-31T14:17:21.223Z,19.02
2022-10-31T14:22:23.623Z,16.13
2022-10-31T14:27:45.317Z,17.48
2022-10-31T14:32:51.584Z,18.05
2022-10-31T14:38:04.084Z,18.48
2022-10-31T14:43:17.365Z,18.13
2022-10-31T14:48:31.833Z,18.95
2022-10-31T14:53:35.758Z,18.45
2022-10-31T14:58:40.499Z,18.23
2022-10-31T15:04:10.105Z,20.05
2022-10-31T15:09:22.460Z,20.73
2022-10-31T15:14:27.416Z,19.42
2022-10-31T15:19:31.903Z,19.75
2022-10-31T15:24:36.346Z,19.38
2022-10-31T15:29:48.764Z,20.88
2022-10-31T15:34:51.687Z,20.92
2022-10-31T15:39:54.320Z,21.38
2022-10-31T15:45:01.095Z,22.58
2022-10-31T15:50:05.917Z,21.95
2022-10-31T15:55:17.493Z,23.10
2022-10-31T16:00:26.407Z,24.77
2022-10-31T16:05:35.926Z,21.95
2022-10-31T16:10:38.413Z,23.50
2022-10-31T16:15:55.743Z,25.00
2022-10-31T16:21:01.881Z,24.60
2022-10-31T16:26:07.445Z,21.73
2022-10-31T16:31:16.118Z,21.38
2022-10-31T16:36:36.327Z,20.42
2022-10-31T16:41:41.150Z,20.92
2022-10-31T16:46:44.910Z,22.75
2022-10-31T16:51:47.269Z,23.27
2022-10-31T16:56:49.795Z,21.33
2022-10-31T17:01:53.598Z,21.60
2022-10-31T17:06:56.021Z,24.05
2022-10-31T17:11:58.462Z,21.93
2022-10-31T17:17:02.213Z,22.63
2022-10-31T17:22:04.599Z,25.55
2022-10-31T17:27:06.943Z,23.20
2022-10-31T17:32:10.606Z,26.40
2022-10-31T17:37:12.998Z,26.02
2022-10-31T17:42:15.346Z,24.83
2022-10-31T17:47:19.020Z,28.10
2022-10-31T17:52:21.786Z,25.75
2022-10-31T17:57:24.136Z,27.73
2022-10-31T18:02:27.991Z,25.57
2022-10-31T18:07:30.387Z,25.70
2022-10-31T18:12:33.092Z,25.40
2022-10-31T18:17:39.492Z,26.27
2022-10-31T18:22:44.490Z,26.67
2022-10-31T18:27:46.842Z,24.83
2022-10-31T18:32:51.575Z,26.37
2022-10-31T18:37:54.707Z,25.63
2022-10-31T18:42:58.402Z,27.52
2022-10-31T18:48:02.584Z,25.90
2022-10-31T18:53:05.221Z,24.85
2022-10-31T18:58:07.643Z,27.70
2022-10-31T19:03:11.354Z,25.43
2022-10-31T19:08:13.762Z,25.67
2022-10-31T19:13:16.929Z,22.53
2022-10-31T19:23:23.131Z,23.08
2022-10-31T19:28:25.515Z,21.88
2022-10-31T19:33:33.419Z,22.80
2022-10-31T19:38:40.516Z,24.38
2022-10-31T19:43:42.918Z,24.27
2022-10-31T19:48:45.279Z,23.80
2022-10-31T19:53:50.319Z,24.17
2022-10-31T19:58:52.699Z,26.13
2022-10-31T20:03:55.056Z,24.27
2022-10-31T20:08:59.505Z,20.97
2022-10-31T20:14:01.851Z,19.73
2022-10-31T20:19:04.289Z,20.17
2022-10-31T20:24:09.104Z,21.23
2022-10-31T20:29:15.688Z,18.08
2022-10-31T20:34:18.074Z,18.02
2022-10-31T20:39:21.811Z,16.67
2022-10-31T20:44:24.345Z,17.88
2022-10-31T20:49:26.677Z,15.03
2022-10-31T20:54:30.387Z,14.70
2022-10-31T20:59:32.747Z,16.45
2022-10-31T21:04:35.131Z,14.80
2022-10-31T21:09:38.845Z,16.13
2022-10-31T21:14:41.240Z,16.67
2022-10-31T21:19:43.582Z,15.53
2022-10-31T21:24:47.321Z,15.60
2022-10-31T21:29:49.698Z,17.83
2022-10-31T21:34:52.079Z,15.07
2022-10-31T21:39:55.786Z,15.93
2022-10-31T21:44:58.185Z,14.60
2022-10-31T21:50:00.546Z,12.60
2022-10-31T21:55:04.838Z,12.57
2022-10-31T22:00:08.981Z,12.02
2022-10-31T22:05:11.314Z,11.48
2022-10-31T22:10:15.001Z,10.40
2022-10-31T22:15:22.579Z,11.00
2022-10-31T22:20:26.161Z,9.65
2022-10-31T22:25:29.889Z,9.68
2022-10-31T22:30:32.246Z,8.90
2022-10-31T22:35:35.001Z,9.60
2022-10-31T22:40:38.723Z,9.35
2022-10-31T22:45:41.140Z,8.60
2022-10-31T22:50:43.499Z,8.30
2022-10-31T22:55:47.180Z,8.07
2022-10-31T23:00:49.698Z,7.28
2022-10-31T23:05:55.380Z,6.07
2022-10-31T23:10:59.129Z,6.15
2022-10-31T23:16:01.493Z,6.28
2022-10-31T23:21:04.491Z,5.90
2022-10-31T23:26:25.887Z,6.75
2022-10-31T23:31:28.243Z,5.55
2022-10-31T23:36:30.700Z,4.83
2022-10-31T23:41:34.387Z,5.97
2022-10-31T23:46:36.729Z,5.20
2022-10-31T23:51:39.178Z,4.70
2022-10-31T23:56:42.890Z,5.63
